Time;durP1;ratioP1;P1;durP2;ratioP2;P2;SDS_P1;SDS_P2;PMS_P1;PMS_P2;Temp;Humidity;BMP_temperature;BMP_pressure;BME280_temperature;BME280_humidity;BME280_pressure;Samples;Min_cycle;Max_cycle;Signal;HPM_P1;HPM_P2
2023/08/15 15:48:55;;;;;;;7.38;3.20;;;;;;;24.71;88.60;98614.59;5019010;28;20423;-47
2023/08/15 15:51:21;;;;;;;13.93;2.92;;;;;;;24.81;88.06;98618.28;5006161;28;20030;-49
2023/08/15 15:53:46;;;;;;;9.00;3.95;;;;;;;24.79;87.99;98620.25;5009044;28;20398;-49
2023/08/15 15:56:12;;;;;;;6.70;2.83;;;;;;;24.78;88.25;98613.13;4995673;28;20031;-51
2023/08/15 15:58:37;;;;;;;7.10;3.80;;;;;;;24.79;88.06;98620.25;5001014;28;20053;-48
2023/08/15 16:01:02;;;;;;;6.07;2.88;;;;;;;24.75;88.24;98613.41;5005924;28;20443;-47
2023/08/15 16:03:28;;;;;;;7.32;2.90;;;;;;;24.82;87.68;98603.88;5006806;28;20033;-48
2023/08/15 16:05:53;;;;;;;7.68;3.45;;;;;;;24.82;87.93;98609.25;4994525;28;20027;-47
2023/08/15 16:08:19;;;;;;;5.30;2.50;;;;;;;24.77;87.61;98614.13;4993070;28;20022;-47
2023/08/15 16:10:44;;;;;;;5.43;2.35;;;;;;;24.65;87.02;98609.66;4995363;28;20122;-45
2023/08/15 16:13:09;;;;;;;6.13;2.20;;;;;;;24.56;86.47;98607.69;5009446;28;20031;-46
2023/08/15 16:15:35;;;;;;;3.55;2.20;;;;;;;24.50;86.19;98605.44;4993024;28;20034;-46
2023/08/15 16:18:00;;;;;;;8.27;2.58;;;;;;;24.51;85.90;98599.06;4990880;28;20027;-45
2023/08/15 16:20:25;;;;;;;7.75;4.13;;;;;;;24.63;86.72;98603.53;4997884;28;20129;-44
2023/08/15 16:22:51;;;;;;;6.63;2.70;;;;;;;24.65;85.68;98595.38;4999773;28;20034;-45
2023/08/15 16:25:16;;;;;;;3.53;2.03;;;;;;;24.61;86.60;98600.09;4991196;28;20042;-45
2023/08/15 16:27:42;;;;;;;5.70;2.38;;;;;;;24.57;86.38;98582.47;5006568;28;20030;-44
2023/08/15 16:30:07;;;;;;;6.38;2.38;;;;;;;24.61;86.51;98589.31;4995398;28;20030;-44
2023/08/15 16:32:33;;;;;;;5.10;2.28;;;;;;;24.55;85.22;98587.09;4991008;28;20027;-44
2023/08/15 16:34:58;;;;;;;6.35;2.20;;;;;;;24.56;85.54;98596.03;4990121;28;20475;-44
2023/08/15 16:37:24;;;;;;;4.53;2.00;;;;;;;24.57;85.54;98598.63;5008243;28;20084;-44
2023/08/15 16:39:50;;;;;;;93.22;5.20;;;;;;;24.96;88.21;98594.69;5005464;28;20038;-52
2023/08/15 16:42:15;;;;;;;3.75;2.13;;;;;;;25.03;83.02;98602.19;5006287;28;20084;-46
2023/08/15 16:50:39;;;;;;;6.30;2.60;;;;;;;23.72;91.99;98616.69;5110476;27;20728;-76
2023/08/15 16:53:05;;;;;;;8.15;2.85;;;;;;;23.59;94.05;98623.91;5102493;28;20040;-72
2023/08/15 16:55:31;;;;;;;3.70;2.33;;;;;;;23.44;96.67;98619.63;5094408;28;20055;-71
2023/08/15 16:57:59;;;;;;;4.78;2.85;;;;;;;23.23;96.68;98621.19;5099549;28;20391;-71
2023/08/15 17:00:26;;;;;;;7.60;3.22;;;;;;;23.12;99.19;98621.03;5097528;28;20031;-71
2023/08/15 17:02:51;;;;;;;8.20;3.00;;;;;;;22.95;98.72;98621.34;5111897;28;20032;-67
2023/08/15 17:05:17;;;;;;;9.75;3.28;;;;;;;22.88;100.00;98626.25;5130502;28;20030;-75
2023/08/15 17:07:43;;;;;;;16.50;3.60;;;;;;;22.86;100.00;98621.97;5119694;28;20055;-73
2023/08/15 17:10:08;;;;;;;6.57;3.30;;;;;;;22.80;100.00;98622.41;5128499;28;20030;-70
2023/08/15 17:12:34;;;;;;;8.75;3.10;;;;;;;22.77;100.00;98633.34;5128578;28;20031;-70
2023/08/15 17:14:59;;;;;;;8.90;3.55;;;;;;;22.67;100.00;98633.13;5117981;28;20415;-72
2023/08/15 17:17:25;;;;;;;10.57;3.53;;;;;;;22.52;100.00;98626.09;5121968;28;20034;-72
2023/08/15 17:19:50;;;;;;;7.18;3.50;;;;;;;22.43;100.00;98631.22;5126995;28;20545;-72
2023/08/15 17:22:15;;;;;;;8.45;3.40;;;;;;;22.37;100.00;98639.66;5129669;28;20035;-73
2023/08/15 17:24:42;;;;;;;7.40;3.83;;;;;;;22.35;100.00;98636.22;5130383;28;20027;-73
2023/08/15 17:27:08;;;;;;;7.38;3.50;;;;;;;22.38;100.00;98639.56;5129904;28;20031;-72
2023/08/15 17:29:34;;;;;;;10.85;3.72;;;;;;;22.28;100.00;98629.53;5125212;28;20028;-73
2023/08/15 17:32:01;;;;;;;10.15;3.65;;;;;;;22.26;100.00;98642.19;5121290;28;20039;-73
2023/08/15 17:34:27;;;;;;;8.13;3.92;;;;;;;22.21;100.00;98644.31;5111306;28;20475;-73
2023/08/15 17:36:52;;;;;;;8.07;3.42;;;;;;;22.24;100.00;98654.84;5110162;28;20111;-73
2023/08/15 17:39:17;;;;;;;7.82;3.47;;;;;;;22.22;100.00;98651.38;5110333;28;20081;-72
2023/08/15 17:41:43;;;;;;;6.28;3.72;;;;;;;22.15;100.00;98652.75;5118643;28;20032;-73
2023/08/15 17:44:08;;;;;;;8.30;3.70;;;;;;;22.08;100.00;98654.13;5110125;28;20035;-73
2023/08/15 17:46:33;;;;;;;8.82;3.65;;;;;;;22.00;100.00;98657.31;5122590;27;20028;-73
2023/08/15 17:48:59;;;;;;;6.85;3.63;;;;;;;21.95;100.00;98656.72;5130612;27;20053;-74
2023/08/15 17:51:24;;;;;;;13.93;3.92;;;;;;;21.96;100.00;98660.28;5138492;27;20106;-73
2023/08/15 17:53:49;;;;;;;7.07;3.67;;;;;;;21.93;100.00;98657.78;5149566;27;20063;-73
2023/08/15 17:56:15;;;;;;;6.05;3.65;;;;;;;21.89;100.00;98662.47;5151519;27;20022;-74
2023/08/15 17:58:48;;;;;;;11.13;3.50;;;;;;;21.89;100.00;98672.34;5143159;27;20034;-75
2023/08/15 18:01:14;;;;;;;9.20;4.05;;;;;;;21.81;100.00;98680.00;5123058;28;20488;-74
2023/08/15 18:03:39;;;;;;;10.27;5.03;;;;;;;21.77;100.00;98670.47;5134558;27;20030;-73
2023/08/15 18:06:06;;;;;;;5.45;2.85;;;;;;;21.71;100.00;98674.34;5138560;27;20496;-73
2023/08/15 18:08:32;;;;;;;12.73;3.40;;;;;;;21.64;100.00;98670.31;5134395;27;20028;-74
2023/08/15 18:10:57;;;;;;;7.53;3.85;;;;;;;21.57;100.00;98673.50;5119024;27;20028;-74
2023/08/15 18:13:22;;;;;;;12.43;4.35;;;;;;;21.47;100.00;98675.00;5126483;27;20051;-73
2023/08/15 18:15:48;;;;;;;6.88;3.70;;;;;;;21.33;100.00;98675.91;5117770;27;20093;-73
2023/08/15 18:18:13;;;;;;;10.15;3.70;;;;;;;21.33;100.00;98684.78;5117427;27;20440;-75
2023/08/15 18:20:38;;;;;;;7.47;3.50;;;;;;;21.33;100.00;98696.44;5099220;28;20035;-75
2023/08/15 18:23:04;;;;;;;8.20;3.80;;;;;;;21.26;100.00;98693.25;5125460;27;20019;-74
2023/08/15 18:25:30;;;;;;;10.25;4.13;;;;;;;21.12;100.00;98696.81;5125244;27;20038;-74
2023/08/15 18:27:56;;;;;;;6.15;3.83;;;;;;;21.08;100.00;98703.28;5130716;27;20023;-76
2023/08/15 18:30:21;;;;;;;9.38;3.60;;;;;;;20.99;100.00;98701.19;5135922;27;20489;-73
2023/08/15 18:32:46;;;;;;;8.95;4.28;;;;;;;20.88;100.00;98706.25;5136232;27;20026;-74
2023/08/15 18:35:12;;;;;;;9.30;4.65;;;;;;;20.77;100.00;98707.84;5127845;27;20497;-73
2023/08/15 18:37:38;;;;;;;6.82;3.70;;;;;;;20.64;100.00;98707.72;5107694;27;20102;-74
2023/08/15 18:40:05;;;;;;;8.63;4.00;;;;;;;20.60;100.00;98714.19;5115890;28;20475;-74
2023/08/15 18:42:30;;;;;;;10.70;4.55;;;;;;;20.60;100.00;98716.84;5133648;27;20492;-75
2023/08/15 18:44:56;;;;;;;11.98;4.13;;;;;;;20.55;100.00;98716.28;5135948;27;20037;-77
2023/08/15 18:47:21;;;;;;;6.03;3.70;;;;;;;20.43;100.00;98719.66;5119760;27;20038;-76
2023/08/15 18:49:47;;;;;;;11.98;3.92;;;;;;;20.17;100.00;98722.97;5115501;27;20039;-76
2023/08/15 18:52:12;;;;;;;7.18;3.88;;;;;;;20.08;100.00;98728.78;5115556;28;20047;-73
2023/08/15 18:54:37;;;;;;;12.90;4.38;;;;;;;20.01;100.00;98726.53;5115953;28;20367;-72
2023/08/15 18:57:03;;;;;;;8.63;4.32;;;;;;;20.00;100.00;98736.34;5120856;27;20076;-72
2023/08/15 18:59:28;;;;;;;10.77;4.85;;;;;;;19.93;100.00;98734.13;5135429;27;20031;-72
2023/08/15 19:01:53;;;;;;;7.57;4.00;;;;;;;19.81;100.00;98741.00;5135095;27;20034;-72
2023/08/15 19:04:19;;;;;;;12.43;4.10;;;;;;;19.80;100.00;98739.25;5135379;27;20075;-72
2023/08/15 19:06:44;;;;;;;18.13;4.70;;;;;;;19.76;100.00;98740.38;5116513;27;20114;-72
2023/08/15 19:09:09;;;;;;;11.95;4.38;;;;;;;19.73;100.00;98732.53;5131938;27;20031;-73
2023/08/15 19:11:35;;;;;;;12.10;6.07;;;;;;;19.61;100.00;98738.53;5114905;27;20423;-72
2023/08/15 19:14:00;;;;;;;15.82;5.63;;;;;;;19.61;100.00;98743.03;5104724;27;20038;-72
2023/08/15 19:16:25;;;;;;;14.70;5.13;;;;;;;19.65;100.00;98742.75;5115403;27;20031;-72
2023/08/15 19:18:51;;;;;;;15.52;5.78;;;;;;;19.50;100.00;98745.41;5135103;27;20028;-73
2023/08/15 19:21:16;;;;;;;13.80;6.55;;;;;;;19.29;100.00;98747.38;5115474;27;20034;-72
2023/08/15 19:23:44;;;;;;;14.75;5.45;;;;;;;19.30;100.00;98743.75;5115139;28;20080;-72
2023/08/15 19:26:09;;;;;;;8.77;5.05;;;;;;;19.39;100.00;98737.94;5115136;28;20106;-73
2023/08/15 19:28:35;;;;;;;13.82;4.68;;;;;;;19.47;100.00;98738.41;5116103;28;20543;-77
2023/08/15 19:31:00;;;;;;;9.13;5.63;;;;;;;19.35;100.00;98741.72;5115986;27;20031;-75
2023/08/15 19:33:25;;;;;;;11.45;5.47;;;;;;;19.27;100.00;98743.97;5129256;27;20033;-75
2023/08/15 19:35:51;;;;;;;10.15;5.35;;;;;;;19.22;100.00;98741.50;5133074;27;20045;-74
2023/08/15 19:38:16;;;;;;;8.75;4.80;;;;;;;19.13;100.00;98746.44;5131598;27;20077;-75
2023/08/15 19:40:42;;;;;;;18.30;5.15;;;;;;;19.09;100.00;98745.75;5116426;27;20047;-72
2023/08/15 19:43:07;;;;;;;16.20;5.80;;;;;;;19.04;100.00;98752.22;5111100;27;20359;-75
2023/08/15 19:45:32;;;;;;;8.73;4.85;;;;;;;19.06;100.00;98751.22;5110644;27;20027;-75
2023/08/15 19:47:58;;;;;;;13.88;5.85;;;;;;;19.07;100.00;98757.41;5111566;27;20047;-75
2023/08/15 19:50:23;;;;;;;16.50;5.53;;;;;;;18.93;100.00;98751.94;5111597;27;20053;-75
2023/08/15 19:52:48;;;;;;;13.15;4.90;;;;;;;18.88;100.00;98757.50;5105350;28;20028;-75
2023/08/15 19:55:14;;;;;;;8.52;4.78;;;;;;;18.90;100.00;98749.41;5104374;28;20474;-76
2023/08/15 19:57:39;;;;;;;10.18;5.32;;;;;;;18.82;100.00;98756.94;5101932;28;20071;-75
2023/08/15 20:00:06;;;;;;;14.13;4.50;;;;;;;18.77;100.00;98748.31;5109830;27;20035;-75
2023/08/15 20:02:33;;;;;;;8.13;4.68;;;;;;;18.72;100.00;98750.34;5102932;28;20046;-75
2023/08/15 20:04:58;;;;;;;11.63;4.68;;;;;;;18.64;100.00;98755.19;5109405;28;20026;-76
2023/08/15 20:07:24;;;;;;;15.52;4.82;;;;;;;18.62;100.00;98749.94;5114053;28;20110;-75
2023/08/15 20:09:49;;;;;;;7.80;4.72;;;;;;;18.56;100.00;98754.69;5109694;27;20024;-75
2023/08/15 20:12:14;;;;;;;11.55;4.72;;;;;;;18.59;100.00;98754.56;5109880;27;20020;-75
2023/08/15 20:14:40;;;;;;;9.38;5.45;;;;;;;18.64;100.00;98757.88;5113936;28;20080;-75
2023/08/15 20:17:05;;;;;;;7.63;4.05;;;;;;;18.47;100.00;98749.81;5325888;22;20056;-65
2023/08/15 20:19:31;;;;;;;20.35;5.10;;;;;;;18.35;100.00;98750.41;5065242;28;20035;-65
2023/08/15 20:21:59;;;;;;;27.50;5.30;;;;;;;18.32;100.00;98750.56;5082860;22;20048;-74
2023/08/15 20:24:25;;;;;;;16.08;4.30;;;;;;;18.33;100.00;98746.94;5072211;28;20025;-74
2023/08/15 20:26:51;;;;;;;6.82;4.45;;;;;;;18.38;100.00;98745.81;5071755;28;20028;-74
2023/08/15 20:29:17;;;;;;;14.93;5.03;;;;;;;18.31;100.00;98732.81;5054178;28;20036;-74
2023/08/15 20:31:42;;;;;;;24.58;5.85;;;;;;;18.26;100.00;98737.53;5072573;28;20035;-75
2023/08/15 20:34:07;;;;;;;18.30;6.28;;;;;;;18.29;100.00;98740.03;5073050;28;20107;-80
2023/08/15 20:36:33;;;;;;;11.15;5.20;;;;;;;18.31;100.00;98738.16;5072737;28;20032;-79
2023/08/15 20:38:58;;;;;;;13.90;5.82;;;;;;;18.25;100.00;98743.75;5072545;28;20124;-77
2023/08/15 20:41:23;;;;;;;8.65;4.78;;;;;;;18.18;100.00;98747.66;5072158;28;20029;-78
2023/08/15 20:43:49;;;;;;;14.18;4.90;;;;;;;18.13;100.00;98747.88;5072515;28;20391;-78
2023/08/15 20:46:14;;;;;;;17.98;4.90;;;;;;;18.04;100.00;98742.16;5054730;28;20043;-77
2023/08/15 20:48:39;;;;;;;14.13;4.35;;;;;;;18.09;100.00;98742.78;5072543;28;20024;-77
2023/08/15 20:51:05;;;;;;;13.93;5.10;;;;;;;18.21;100.00;98740.41;5065464;28;20055;-77
2023/08/15 20:53:30;;;;;;;13.90;5.47;;;;;;;18.18;100.00;98743.22;5072813;28;20111;-77
2023/08/15 20:55:55;;;;;;;18.85;4.47;;;;;;;18.12;100.00;98737.31;5071640;28;20036;-77
2023/08/15 20:58:21;;;;;;;36.25;5.10;;;;;;;18.08;100.00;98738.41;5054909;28;20111;-78
2023/08/15 21:00:46;;;;;;;7.50;4.57;;;;;;;18.15;100.00;98745.16;5073021;28;20062;-78
2023/08/15 21:03:12;;;;;;;27.98;5.47;;;;;;;18.10;100.00;98740.03;5072627;28;20032;-78
2023/08/15 21:05:37;;;;;;;12.13;4.95;;;;;;;18.17;100.00;98745.94;5072960;28;20025;-78
2023/08/15 21:08:06;;;;;;;17.58;5.07;;;;;;;18.18;100.00;98747.66;5072924;28;20364;-77
2023/08/15 21:10:31;;;;;;;30.00;5.30;;;;;;;18.10;100.00;98747.19;5072328;28;20377;-78
2023/08/15 21:12:56;;;;;;;22.23;5.05;;;;;;;18.10;100.00;98752.53;5072877;28;20111;-77
2023/08/15 21:15:22;;;;;;;18.92;5.35;;;;;;;18.05;100.00;98755.41;5072741;28;20352;-78
2023/08/15 21:17:47;;;;;;;13.13;5.07;;;;;;;18.05;100.00;98751.84;5072783;28;20029;-78
2023/08/15 21:20:12;;;;;;;13.10;5.35;;;;;;;18.14;100.00;98759.41;5052341;28;20384;-77
2023/08/15 21:22:42;;;;;;;20.52;5.28;;;;;;;18.15;100.00;98759.34;5052755;28;20040;-78
2023/08/15 21:25:07;;;;;;;16.45;5.18;;;;;;;18.13;100.00;98763.88;5034490;28;20067;-78
2023/08/15 21:27:32;;;;;;;9.60;5.13;;;;;;;18.10;100.00;98755.19;5052649;28;20056;-71
2023/08/15 21:29:58;;;;;;;11.60;4.22;;;;;;;18.14;100.00;98759.41;5052649;28;20017;-70
2023/08/15 21:32:23;;;;;;;8.93;4.25;;;;;;;18.19;100.00;98765.41;5052164;28;20032;-70
2023/08/15 21:34:48;;;;;;;13.50;4.18;;;;;;;18.15;100.00;98758.47;5051916;28;20411;-70
2023/08/15 21:37:14;;;;;;;7.28;3.72;;;;;;;18.10;100.00;98769.34;5055666;28;20029;-70
2023/08/15 21:39:39;;;;;;;8.27;3.88;;;;;;;18.03;100.00;98761.75;5055804;28;20064;-70
2023/08/15 21:42:04;;;;;;;11.25;3.65;;;;;;;18.01;100.00;98760.94;5037478;28;20060;-72
2023/08/15 21:44:30;;;;;;;5.88;3.45;;;;;;;18.06;100.00;98761.56;5055708;28;20107;-72
2023/08/15 21:46:55;;;;;;;13.27;3.30;;;;;;;18.01;100.00;98760.94;5055974;28;20032;-78
2023/08/15 21:49:21;;;;;;;6.55;3.22;;;;;;;18.02;100.00;98770.66;5055723;28;20021;-79
2023/08/15 21:51:46;;;;;;;5.75;3.38;;;;;;;18.02;100.00;98768.84;5055587;28;20495;-80
2023/08/15 21:54:12;;;;;;;9.48;3.47;;;;;;;17.96;100.00;98768.25;5055774;28;20025;-79
2023/08/15 21:56:37;;;;;;;15.15;3.92;;;;;;;17.86;100.00;98780.28;5054746;28;20033;-80
2023/08/15 21:59:03;;;;;;;16.27;4.18;;;;;;;17.76;100.00;98773.66;5037507;28;20037;-80
2023/08/15 22:01:28;;;;;;;13.07;4.00;;;;;;;17.67;100.00;98771.41;5055222;28;20075;-80
2023/08/15 22:03:53;;;;;;;28.88;4.57;;;;;;;17.66;100.00;98764.38;5055564;28;20029;-80
2023/08/15 22:06:19;;;;;;;14.30;4.30;;;;;;;17.75;100.00;98769.28;5055550;28;20024;-79
2023/08/15 22:08:44;;;;;;;15.27;4.53;;;;;;;17.79;100.00;98770.84;5055324;28;20392;-79
2023/08/15 22:11:09;;;;;;;10.98;4.03;;;;;;;17.81;100.00;98782.31;5050990;28;20033;-79
2023/08/15 22:13:35;;;;;;;12.55;4.72;;;;;;;17.80;100.00;98773.44;5046590;28;20017;-79
2023/08/15 22:16:00;;;;;;;11.90;4.53;;;;;;;17.82;100.00;98782.25;5054880;28;20033;-79
2023/08/15 22:18:26;;;;;;;12.77;4.00;;;;;;;17.82;100.00;98781.38;5054105;28;20063;-78
2023/08/15 22:20:55;;;;;;;12.48;4.05;;;;;;;17.84;100.00;98782.16;5049787;28;20057;-79
2023/08/15 22:23:21;;;;;;;6.38;4.00;;;;;;;17.72;100.00;98785.38;5054866;28;20098;-79
2023/08/15 22:25:47;;;;;;;15.23;4.03;;;;;;;17.67;100.00;98782.06;5055145;28;20104;-79
2023/08/15 22:28:13;;;;;;;14.55;4.15;;;;;;;17.56;100.00;98789.69;5037422;28;20033;-79
2023/08/15 22:30:39;;;;;;;11.88;4.15;;;;;;;17.59;100.00;98790.38;5055275;28;20112;-78
2023/08/15 22:33:05;;;;;;;18.17;5.38;;;;;;;17.45;100.00;98791.94;5055053;28;20112;-78
2023/08/15 22:35:40;;;;;;;18.00;4.40;;;;;;;17.50;100.00;98784.63;5054889;28;20365;-79
2023/08/15 22:38:05;;;;;;;12.88;4.38;;;;;;;17.54;100.00;98789.75;5054898;28;20104;-72
2023/08/15 22:40:31;;;;;;;8.07;4.10;;;;;;;17.59;100.00;98789.53;5054876;28;20128;-72
2023/08/15 22:42:56;;;;;;;13.35;4.03;;;;;;;17.61;100.00;98787.66;5037074;28;20040;-72
2023/08/15 22:45:23;;;;;;;6.95;3.92;;;;;;;17.55;100.00;98783.47;5054727;28;20028;-72
2023/08/15 22:47:48;;;;;;;12.15;3.90;;;;;;;17.60;100.00;98788.59;5054700;28;20032;-72
2023/08/15 22:50:13;;;;;;;7.70;3.80;;;;;;;17.59;100.00;98786.88;5054549;28;20029;-72
2023/08/15 22:52:39;;;;;;;9.48;3.55;;;;;;;17.61;100.00;98785.00;5054753;28;20017;-72
2023/08/15 22:55:05;;;;;;;9.07;3.33;;;;;;;17.58;100.00;98780.69;5054598;28;20098;-72
2023/08/15 22:57:30;;;;;;;9.02;3.33;;;;;;;17.48;100.00;98786.47;5054531;28;20053;-72
2023/08/15 22:59:56;;;;;;;14.10;4.10;;;;;;;17.52;100.00;98785.44;5054532;28;20060;-72
2023/08/15 23:02:21;;;;;;;10.00;4.40;;;;;;;17.51;100.00;98786.34;5054386;28;20032;-72
2023/08/15 23:04:46;;;;;;;17.48;4.28;;;;;;;17.50;100.00;98784.63;5054481;28;20074;-72
2023/08/15 23:07:12;;;;;;;18.23;4.15;;;;;;;17.32;100.00;98780.06;5054425;28;20032;-72
2023/08/15 23:09:37;;;;;;;7.68;3.22;;;;;;;17.30;100.00;98779.28;5054272;28;20031;-72
2023/08/15 23:12:02;;;;;;;31.35;4.20;;;;;;;17.33;100.00;98776.50;5054410;28;20057;-72
2023/08/15 23:14:28;;;;;;;31.05;4.30;;;;;;;17.34;100.00;98767.56;5054077;28;20025;-72
2023/08/15 23:16:53;;;;;;;11.45;3.83;;;;;;;17.41;100.00;98777.00;5035997;28;20040;-72
2023/08/15 23:19:18;;;;;;;6.13;4.43;;;;;;;17.37;100.00;98772.75;5036447;28;20041;-72
2023/08/15 23:21:44;;;;;;;6.35;3.00;;;;;;;17.42;100.00;98765.41;5053836;28;20062;-72
2023/08/15 23:24:09;;;;;;;8.43;3.10;;;;;;;17.44;100.00;98759.16;5054051;28;20426;-72
2023/08/15 23:26:35;;;;;;;54.10;3.95;;;;;;;17.27;100.00;98767.84;5053918;28;20029;-72
2023/08/15 23:29:01;;;;;;;11.25;2.72;;;;;;;17.12;100.00;98752.53;5053972;28;20060;-72
2023/08/15 23:31:34;;;;;;;14.00;3.20;;;;;;;17.14;100.00;98756.00;5053992;28;20033;-72
2023/08/15 23:34:05;;;;;;;6.65;3.25;;;;;;;17.21;100.00;98749.50;5053799;28;20025;-72
2023/08/15 23:36:31;;;;;;;8.63;3.60;;;;;;;17.18;100.00;98757.59;5053909;28;20468;-72
2023/08/15 23:38:57;;;;;;;15.32;3.53;;;;;;;17.18;100.00;98757.59;5053569;28;20040;-72
2023/08/15 23:41:24;;;;;;;9.88;3.65;;;;;;;17.18;100.00;98757.59;5035958;28;20431;-72
2023/08/15 23:43:49;;;;;;;6.88;3.20;;;;;;;17.18;100.00;98757.59;5035622;28;20036;-72
2023/08/15 23:46:15;;;;;;;6.78;3.30;;;;;;;17.27;100.00;98739.53;5035820;28;20033;-72
2023/08/15 23:48:42;;;;;;;6.93;2.60;;;;;;;17.27;100.00;98739.53;5053772;28;20029;-72
2023/08/15 23:51:08;;;;;;;9.45;2.92;;;;;;;17.27;100.00;98739.53;5053434;28;20024;-72
2023/08/15 23:53:33;;;;;;;14.20;3.72;;;;;;;17.27;100.00;98739.53;5053597;28;20147;-72
2023/08/15 23:55:59;;;;;;;18.48;3.50;;;;;;;17.27;100.00;98739.53;5035586;28;20437;-72
2023/08/15 23:58:24;;;;;;;15.48;3.38;;;;;;;17.27;100.00;98739.53;5052787;28;20025;-72
